Jacksboro, Texas
Current Conditions -  °F | °C
As of 3:35 PM on Wednesday 26 Nov 2014 (Local Time) from KXBP Reporting Station
Clear Clear  
Wind Chill: 62°   Ceiling: Unl
Heat Index: 62°   Visibility: 10mi
Dew Point: 37°   Wind: 6mph
Humidity: 40%   Direction: 330°NNW
Pressure: 30.24"   Gusts: NA
Location:  33.22°N, 98.16°W
Report Text: KXBP 262135Z AUTO 33005KT 10SM CLR 17/03 A3024 RMK AO2 T01680030
Loading
Personal Weather Stations






























Interactive Weather Map New forecast layout! Learn more

10-Day Weather Forecast

Advertisements
Track Severe Weather on mobile